Time,TemperatureF,DewpointF,PressureIn,WindDirection,WindDirectionDegrees,WindSpeedMPH,WindSpeedGustMPH,Humidity,HourlyPrecipIn,Conditions,Clouds,dailyrainin,SoftwareType,DateUTC
2013-09-24 00:04:00,-999.0,-99.9,30.08,NE,56,4.0,6.0,-999,-99.99,,,-99.99,,2013-09-24 04:04:00,
2013-09-24 00:54:00,-999.0,-99.9,30.08,NE,40,2.0,3.0,-999,-99.99,,,-99.99,,2013-09-24 04:54:00,
2013-09-24 01:13:00,-999.0,-99.9,30.08,NE,48,2.0,4.0,-999,-99.99,,,-99.99,,2013-09-24 05:13:00,
2013-09-24 01:23:00,-999.0,-99.9,30.08,NE,39,3.0,3.0,-999,-99.99,,,-99.99,,2013-09-24 05:23:00,
2013-09-24 02:13:00,-999.0,-99.9,30.08,NE,56,3.0,4.0,-999,-99.99,,,-99.99,,2013-09-24 06:13:00,
2013-09-24 02:22:00,-999.0,-99.9,30.08,NE,36,2.0,3.0,-999,-99.99,,,-99.99,,2013-09-24 06:22:00,
2013-09-24 02:42:00,-999.0,-99.9,30.08,NE,34,2.0,2.0,-999,-99.99,,,-99.99,,2013-09-24 06:42:00,
2013-09-24 03:03:00,-999.0,-99.9,30.07,NNE,24,2.0,3.0,-999,-99.99,,,-99.99,,2013-09-24 07:03:00,
2013-09-24 03:12:00,-999.0,-99.9,30.07,NNE,29,3.0,3.0,-999,-99.99,,,-99.99,,2013-09-24 07:12:00,
2013-09-24 03:32:00,-999.0,-99.9,30.07,NNE,27,3.0,4.0,-999,-99.99,,,-99.99,,2013-09-24 07:32:00,
2013-09-24 04:02:00,-999.0,-99.9,30.07,NNE,33,2.0,3.0,-999,-99.99,,,-99.99,,2013-09-24 08:02:00,
2013-09-24 04:11:00,-999.0,-99.9,30.07,NNE,31,3.0,3.0,-999,-99.99,,,-99.99,,2013-09-24 08:11:00,
2013-09-24 04:23:00,62.0,-99.9,30.07,North,-999,-999.0,-999.0,-999,-99.99,,,-99.99,,2013-09-24 08:23:00,
2013-09-24 04:42:00,-999.0,-99.9,30.07,NE,41,3.0,4.0,-999,-99.99,,,-99.99,,2013-09-24 08:42:00,
2013-09-24 05:02:00,-999.0,-99.9,30.06,NE,48,3.0,3.0,-999,-99.99,,,-99.99,,2013-09-24 09:02:00,
2013-09-24 05:12:00,-999.0,-99.9,30.06,NE,46,3.0,4.0,-999,-99.99,,,-99.99,,2013-09-24 09:12:00,
2013-09-24 05:22:00,-999.0,-99.9,30.06,NE,42,3.0,4.0,-999,-99.99,,,-99.99,,2013-09-24 09:22:00,
2013-09-24 05:43:00,-999.0,-99.9,30.07,NE,40,2.0,3.0,-999,-99.99,,,-99.99,,2013-09-24 09:43:00,
2013-09-24 05:54:00,-999.0,-99.9,30.07,NE,40,3.0,3.0,-999,-99.99,,,-99.99,,2013-09-24 09:54:00,
2013-09-24 06:03:00,-999.0,-99.9,30.07,NE,38,3.0,3.0,-999,-99.99,,,-99.99,,2013-09-24 10:03:00,
2013-09-24 06:33:00,-999.0,-99.9,30.07,NNE,28,3.0,4.0,-999,-99.99,,,-99.99,,2013-09-24 10:33:00,
2013-09-24 08:22:00,63.0,-99.9,30.10,North,-999,-999.0,-999.0,-999,-99.99,,,-99.99,,2013-09-24 12:22:00,
2013-09-24 09:11:00,-999.0,-99.9,30.10,North,10,5.0,8.0,-999,-99.99,,,-99.99,,2013-09-24 13:11:00,
2013-09-24 09:22:00,-999.0,-99.9,30.10,North,9,5.0,8.0,-999,-99.99,,,-99.99,,2013-09-24 13:22:00,
2013-09-24 09:52:00,-999.0,-99.9,30.10,NNE,16,4.0,7.0,-999,-99.99,,,-99.99,,2013-09-24 13:52:00,
2013-09-24 10:02:00,-999.0,-99.9,30.10,NNE,16,6.0,8.0,-999,-99.99,,,-99.99,,2013-09-24 14:02:00,
2013-09-24 10:22:00,-999.0,-99.9,30.10,North,355,6.0,8.0,-999,-99.99,,,-99.99,,2013-09-24 14:22:00,
2013-09-24 10:42:00,-999.0,-99.9,30.10,North,0,9.0,13.0,-999,-99.99,,,-99.99,,2013-09-24 14:42:00,
2013-09-24 11:11:00,-999.0,-99.9,30.11,North,355,6.0,9.0,-999,-99.99,,,-99.99,,2013-09-24 15:11:00,
2013-09-24 11:33:00,-999.0,-99.9,30.10,North,3,8.0,10.0,-999,-99.99,,,-99.99,,2013-09-24 15:33:00,
2013-09-24 11:54:00,-999.0,-99.9,30.09,North,2,8.0,11.0,-999,-99.99,,,-99.99,,2013-09-24 15:54:00,
2013-09-24 12:03:00,-999.0,-99.9,30.09,North,353,10.0,15.0,-999,-99.99,,,-99.99,,2013-09-24 16:03:00,
2013-09-24 12:43:00,-999.0,-99.9,30.08,North,355,9.0,14.0,-999,-99.99,,,-99.99,,2013-09-24 16:43:00,
2013-09-24 12:53:00,-999.0,-99.9,30.07,North,351,9.0,13.0,-999,-99.99,,,-99.99,,2013-09-24 16:53:00,
2013-09-24 13:02:00,-999.0,-99.9,30.07,North,352,11.0,13.0,-999,-99.99,,,-99.99,,2013-09-24 17:02:00,
2013-09-24 13:33:00,-999.0,-99.9,30.05,North,354,12.0,16.0,-999,-99.99,,,-99.99,,2013-09-24 17:33:00,
2013-09-24 13:54:00,-999.0,-99.9,30.04,North,352,10.0,13.0,-999,-99.99,,,-99.99,,2013-09-24 17:54:00,
2013-09-24 14:03:00,-999.0,-99.9,30.03,NNE,16,8.0,12.0,-999,-99.99,,,-99.99,,2013-09-24 18:03:00,
2013-09-24 14:42:00,-999.0,-99.9,30.02,North,355,12.0,14.0,-999,-99.99,,,-99.99,,2013-09-24 18:42:00,
2013-09-24 15:12:00,-999.0,-99.9,30.01,North,351,10.0,14.0,-999,-99.99,,,-99.99,,2013-09-24 19:12:00,
2013-09-24 15:22:00,-999.0,-99.9,30.00,North,349,8.0,11.0,-999,-99.99,,,-99.99,,2013-09-24 19:22:00,
2013-09-24 15:32:00,-999.0,-99.9,30.00,North,353,5.0,11.0,-999,-99.99,,,-99.99,,2013-09-24 19:32:00,
2013-09-24 16:03:00,-999.0,-99.9,29.99,North,10,6.0,10.0,-999,-99.99,,,-99.99,,2013-09-24 20:03:00,
2013-09-24 16:32:00,-999.0,-99.9,29.99,North,355,7.0,10.0,-999,-99.99,,,-99.99,,2013-09-24 20:32:00,
2013-09-24 16:42:00,-999.0,-99.9,29.99,North,354,8.0,9.0,-999,-99.99,,,-99.99,,2013-09-24 20:42:00,
2013-09-24 17:02:00,-999.0,-99.9,29.99,NNE,15,5.0,10.0,-999,-99.99,,,-99.99,,2013-09-24 21:02:00,
2013-09-24 17:12:00,-999.0,-99.9,29.99,North,353,8.0,11.0,-999,-99.99,,,-99.99,,2013-09-24 21:12:00,
2013-09-24 17:22:00,71.0,-99.9,29.99,North,-999,-999.0,-999.0,-999,-99.99,,,-99.99,,2013-09-24 21:22:00,
2013-09-24 17:54:00,-999.0,-99.9,29.99,ESE,102,9.0,11.0,-999,-99.99,,,-99.99,,2013-09-24 21:54:00,
2013-09-24 18:24:00,-999.0,-99.9,29.98,ESE,104,10.0,13.0,-999,-99.99,,,-99.99,,2013-09-24 22:24:00,
2013-09-24 18:34:00,-999.0,-99.9,29.98,East,97,9.0,12.0,-999,-99.99,,,-99.99,,2013-09-24 22:34:00,
2013-09-24 18:54:00,-999.0,-99.9,29.98,East,101,8.0,11.0,-999,-99.99,,,-99.99,,2013-09-24 22:54:00,
2013-09-24 19:53:00,-999.0,-99.9,29.98,ESE,102,6.0,8.0,-999,-99.99,,,-99.99,,2013-09-24 23:53:00,
2013-09-24 20:12:00,-999.0,-99.9,29.98,ESE,103,7.0,9.0,-999,-99.99,,,-99.99,,2013-09-25 00:12:00,
2013-09-24 20:33:00,-999.0,-99.9,29.98,East,100,7.0,8.0,-999,-99.99,,,-99.99,,2013-09-25 00:33:00,
2013-09-24 20:52:00,66.0,-99.9,29.99,North,-999,-999.0,-999.0,-999,-99.99,,,-99.99,,2013-09-25 00:52:00,
2013-09-24 21:02:00,-999.0,-99.9,29.99,ESE,103,6.0,7.0,-999,-99.99,,,-99.99,,2013-09-25 01:02:00,
2013-09-24 21:22:00,-999.0,-99.9,29.98,East,94,5.0,6.0,-999,-99.99,,,-99.99,,2013-09-25 01:22:00,
2013-09-24 21:32:00,-999.0,-99.9,29.98,East,95,4.0,6.0,-999,-99.99,,,-99.99,,2013-09-25 01:32:00,
2013-09-24 22:02:00,-999.0,-99.9,29.98,ESE,110,3.0,4.0,-999,-99.99,,,-99.99,,2013-09-25 02:02:00,
2013-09-24 22:22:00,-999.0,-99.9,29.98,East,82,3.0,4.0,-999,-99.99,,,-99.99,,2013-09-25 02:22:00,
2013-09-24 22:32:00,-999.0,-99.9,29.98,ENE,70,3.0,3.0,-999,-99.99,,,-99.99,,2013-09-25 02:32:00,
2013-09-24 22:52:00,65.0,-99.9,29.98,North,-999,-999.0,-999.0,-999,-99.99,,,-99.99,,2013-09-25 02:52:00,
2013-09-24 23:12:00,-999.0,-99.9,29.97,ENE,61,3.0,4.0,-999,-99.99,,,-99.99,,2013-09-25 03:12:00,
2013-09-24 23:34:00,-999.0,-99.9,29.98,NE,53,2.0,3.0,-999,-99.99,,,-99.99,,2013-09-25 03:34:00,
2013-09-24 23:55:00,-999.0,-99.9,29.98,NE,48,3.0,3.0,-999,-99.99,,,-99.99,,2013-09-25 03:55:00,